Terminal Aerodrome Forecast
Issued by NWS

Home | Current Version | Previous Version | Graphics & Text | Print | Product List | Glossary On
Versions: 1 2 3 4 5 6 7 8 9 10 11 12 13 14 15 16 17 18 19 20 21 22 23 24
000
FTUS43 KTOP 241700
TAFMHK
TAF
KMHK 241720Z 2418/2518 17010G18KT P6SM OVC016
     FM242100 17014G20KT P6SM SCT020 BKN035
      TEMPO 2500/2504 1SM TSRA BKN022CB
     FM250400 19008KT P6SM VCTS OVC025CB
     FM251100 29010KT P6SM BKN050=

USA.gov is the U.S. government's official web portal to all federal, state and local government web resources and services.